createdAt,value
2022-12-09T00:00:54.688Z,13.95
2022-12-09T00:03:24.116Z,13.80
2022-12-09T00:05:51.824Z,13.63
2022-12-09T00:08:19.320Z,12.95
2022-12-09T00:10:46.923Z,12.30
2022-12-09T00:13:14.429Z,12.68
2022-12-09T00:15:43.222Z,13.02
2022-12-09T00:18:11.144Z,13.50
2022-12-09T00:20:40.191Z,13.27
2022-12-09T00:23:07.823Z,10.93
2022-12-09T00:25:35.373Z,11.73
2022-12-09T00:28:02.939Z,12.40
2022-12-09T00:30:30.604Z,11.43
2022-12-09T00:32:58.630Z,13.82
2022-12-09T00:35:26.680Z,11.32
2022-12-09T00:37:56.178Z,10.55
2022-12-09T00:40:24.130Z,10.73
2022-12-09T00:42:51.873Z,11.52
2022-12-09T00:45:19.754Z,11.85
2022-12-09T00:47:47.810Z,10.93
2022-12-09T00:50:15.875Z,10.82
2022-12-09T00:52:43.566Z,13.55
2022-12-09T00:55:12.760Z,13.43
2022-12-09T00:57:40.636Z,11.13
2022-12-09T01:00:09.101Z,11.60
2022-12-09T01:02:37.376Z,10.85
2022-12-09T01:05:05.609Z,11.40
2022-12-09T01:07:33.199Z,11.32
2022-12-09T01:10:00.725Z,11.20
2022-12-09T01:12:29.546Z,11.23
2022-12-09T01:14:57.209Z,10.18
2022-12-09T01:17:25.208Z,9.38
2022-12-09T01:19:52.927Z,11.73
2022-12-09T01:22:20.939Z,10.30
2022-12-09T01:24:48.877Z,11.18
2022-12-09T01:27:16.708Z,12.10
2022-12-09T01:29:45.573Z,12.27
2022-12-09T01:32:14.485Z,11.27
2022-12-09T01:34:42.456Z,9.63
2022-12-09T01:37:10.235Z,10.07
2022-12-09T01:39:38.527Z,8.52
2022-12-09T01:42:10.956Z,9.07
2022-12-09T01:44:38.427Z,8.85
2022-12-09T01:47:22.087Z,9.13
2022-12-09T01:49:49.985Z,8.57
2022-12-09T01:52:19.670Z,8.95
2022-12-09T01:54:47.903Z,8.80
2022-12-09T01:57:15.818Z,9.65
2022-12-09T01:59:44.744Z,10.10
2022-12-09T02:02:15.552Z,9.10
2022-12-09T02:04:46.195Z,9.40
2022-12-09T02:07:15.732Z,9.73
2022-12-09T02:09:44.548Z,10.05
2022-12-09T02:12:14.055Z,9.80
2022-12-09T02:14:43.547Z,9.40
2022-12-09T02:17:19.188Z,10.25
2022-12-09T02:19:55.978Z,9.02
2022-12-09T02:22:25.679Z,10.00
2022-12-09T02:24:57.901Z,9.55
2022-12-09T02:27:29.440Z,9.02
2022-12-09T02:30:08.855Z,9.40
2022-12-09T02:32:55.209Z,8.70
2022-12-09T02:35:28.648Z,9.85
2022-12-09T02:37:58.505Z,11.02
2022-12-09T02:40:30.916Z,9.65
2022-12-09T02:42:59.622Z,9.45
2022-12-09T02:45:29.276Z,10.60
2022-12-09T02:48:02.066Z,10.50
2022-12-09T02:50:33.362Z,10.63
2022-12-09T02:53:03.271Z,10.77
2022-12-09T02:55:33.618Z,11.73
2022-12-09T02:58:01.742Z,11.30
2022-12-09T03:00:29.598Z,9.90
2022-12-09T03:02:58.740Z,12.15
2022-12-09T03:05:31.868Z,12.18
2022-12-09T03:08:08.080Z,11.35
2022-12-09T03:10:38.571Z,10.05
2022-12-09T03:13:07.122Z,10.27
2022-12-09T03:15:36.218Z,12.27
2022-12-09T03:18:04.892Z,11.95
2022-12-09T03:20:35.717Z,10.70
2022-12-09T03:23:05.729Z,10.75
2022-12-09T03:25:36.116Z,10.40
2022-12-09T03:28:05.668Z,10.98
2022-12-09T03:30:34.987Z,12.82
2022-12-09T03:33:03.810Z,12.65
2022-12-09T03:35:34.249Z,12.30
2022-12-09T03:38:02.806Z,13.23
2022-12-09T03:40:32.363Z,12.60
2022-12-09T03:43:01.775Z,13.13
2022-12-09T03:45:29.772Z,13.05
2022-12-09T03:47:58.170Z,12.80
2022-12-09T03:50:28.235Z,11.55
2022-12-09T03:52:59.848Z,13.68
2022-12-09T03:55:30.048Z,14.65
2022-12-09T03:57:59.336Z,11.50
2022-12-09T04:00:27.107Z,10.93
2022-12-09T04:02:54.777Z,11.60
2022-12-09T04:05:22.734Z,11.32
2022-12-09T04:07:50.332Z,10.70
2022-12-09T04:10:18.037Z,10.52
2022-12-09T04:12:45.581Z,10.82
2022-12-09T04:15:15.152Z,10.20
2022-12-09T04:17:43.177Z,8.73
2022-12-09T04:20:11.817Z,9.50
2022-12-09T04:22:39.823Z,9.48
2022-12-09T04:25:07.758Z,9.85
2022-12-09T04:27:35.716Z,9.98
2022-12-09T04:30:03.810Z,10.25
2022-12-09T04:32:33.766Z,10.25
2022-12-09T04:35:01.596Z,10.45
2022-12-09T04:37:29.507Z,8.63
2022-12-09T04:39:57.377Z,9.02
2022-12-09T04:42:25.060Z,9.43
2022-12-09T04:44:52.697Z,8.70
2022-12-09T04:47:20.383Z,8.60
2022-12-09T04:49:49.690Z,8.43
2022-12-09T04:52:17.931Z,9.30
2022-12-09T04:54:45.534Z,10.10
2022-12-09T04:57:13.260Z,9.27
2022-12-09T04:59:40.756Z,10.15
2022-12-09T05:02:08.568Z,9.55
2022-12-09T05:04:36.355Z,9.93
2022-12-09T05:07:06.195Z,8.85
2022-12-09T05:09:34.436Z,9.73
2022-12-09T05:12:02.318Z,8.38
2022-12-09T05:14:30.179Z,8.57
2022-12-09T05:16:58.158Z,7.68
2022-12-09T05:19:25.827Z,7.75
2022-12-09T05:21:53.598Z,7.88
2022-12-09T05:24:22.527Z,7.32
2022-12-09T05:26:50.185Z,7.22
2022-12-09T05:29:22.544Z,8.77
2022-12-09T05:31:51.760Z,9.40
2022-12-09T05:34:19.942Z,8.43
2022-12-09T05:36:47.612Z,8.13
2022-12-09T05:39:15.282Z,7.22
2022-12-09T05:41:44.584Z,8.52
2022-12-09T05:44:12.434Z,7.75
2022-12-09T05:46:40.363Z,7.60
2022-12-09T05:49:08.162Z,6.85
2022-12-09T05:51:36.202Z,8.18
2022-12-09T05:54:05.759Z,8.27
2022-12-09T05:56:34.363Z,8.00
2022-12-09T05:59:04.398Z,7.53
2022-12-09T06:01:32.478Z,9.63
2022-12-09T06:04:00.428Z,7.70
2022-12-09T06:06:30.975Z,9.57
2022-12-09T06:09:00.022Z,8.02
2022-12-09T06:11:29.149Z,7.70
2022-12-09T06:13:57.585Z,8.25
2022-12-09T06:16:27.215Z,7.93
2022-12-09T06:18:55.367Z,8.30
2022-12-09T06:21:23.710Z,7.93
2022-12-09T06:23:51.697Z,7.72
2022-12-09T06:26:20.920Z,8.75
2022-12-09T06:28:48.953Z,11.38
2022-12-09T06:31:16.770Z,9.10
2022-12-09T06:33:54.827Z,8.27
2022-12-09T06:36:24.268Z,9.77
2022-12-09T06:38:52.025Z,8.93
2022-12-09T06:41:19.949Z,9.30
2022-12-09T06:43:47.728Z,10.07
2022-12-09T06:46:16.270Z,7.88
2022-12-09T06:48:44.738Z,9.10
2022-12-09T06:51:14.382Z,8.82
2022-12-09T06:53:42.347Z,8.65
2022-12-09T06:56:12.704Z,10.32
2022-12-09T06:58:41.305Z,10.00
2022-12-09T07:01:13.638Z,10.18
2022-12-09T07:03:42.237Z,10.10
2022-12-09T07:06:17.984Z,11.00
2022-12-09T07:08:45.901Z,10.05
2022-12-09T07:11:13.972Z,10.52
2022-12-09T07:13:41.744Z,10.52
2022-12-09T07:16:09.491Z,10.50
2022-12-09T07:18:37.387Z,9.65
2022-12-09T07:21:08.698Z,10.00
2022-12-09T07:23:37.752Z,9.68
2022-12-09T07:26:07.391Z,10.13
2022-12-09T07:28:35.270Z,10.30
2022-12-09T07:31:03.145Z,9.82
2022-12-09T07:33:31.168Z,10.35
2022-12-09T07:36:00.115Z,10.18
2022-12-09T07:38:28.459Z,10.38
2022-12-09T07:41:05.541Z,10.20
2022-12-09T07:43:33.747Z,9.43
2022-12-09T07:46:05.912Z,7.10
2022-12-09T07:48:33.783Z,7.68
2022-12-09T07:51:02.119Z,7.13
2022-12-09T07:53:29.756Z,8.13
2022-12-09T07:56:01.859Z,7.53
2022-12-09T07:58:29.409Z,7.85
2022-12-09T08:00:57.232Z,6.15
2022-12-09T08:03:25.400Z,7.40
2022-12-09T08:05:53.852Z,7.85
2022-12-09T08:08:22.566Z,6.65
2022-12-09T08:10:51.680Z,7.07
2022-12-09T08:13:23.713Z,7.93
2022-12-09T08:15:51.704Z,8.55
2022-12-09T08:18:19.649Z,7.55
2022-12-09T08:20:47.919Z,8.05
2022-12-09T08:23:15.878Z,8.13
2022-12-09T08:25:43.966Z,7.28
2022-12-09T08:28:12.371Z,7.28
2022-12-09T08:30:41.836Z,8.27
2022-12-09T08:33:10.367Z,7.80
2022-12-09T08:35:38.640Z,7.00
2022-12-09T08:38:11.402Z,6.82
2022-12-09T08:40:39.546Z,7.68
2022-12-09T08:43:08.968Z,7.72
2022-12-09T08:45:37.176Z,8.98
2022-12-09T08:48:07.040Z,8.00
2022-12-09T08:50:35.442Z,9.15
2022-12-09T08:53:03.328Z,8.52
2022-12-09T08:55:31.864Z,9.68
2022-12-09T08:58:00.087Z,9.30
2022-12-09T09:00:27.735Z,9.27
2022-12-09T09:02:55.900Z,9.43
2022-12-09T09:05:25.918Z,11.48
2022-12-09T09:07:54.957Z,10.52
2022-12-09T09:10:24.161Z,10.77
2022-12-09T09:12:52.120Z,11.50
2022-12-09T09:15:20.149Z,12.00
2022-12-09T09:17:51.513Z,12.80
2022-12-09T09:20:20.171Z,12.57
2022-12-09T09:22:49.272Z,12.45
2022-12-09T09:25:17.165Z,13.23
2022-12-09T09:27:44.664Z,12.85
2022-12-09T09:30:13.303Z,14.27
2022-12-09T09:32:42.342Z,12.60
2022-12-09T09:35:10.975Z,12.10
2022-12-09T09:37:38.975Z,14.65
2022-12-09T09:40:11.661Z,14.88
2022-12-09T09:42:45.297Z,14.40
2022-12-09T09:45:15.903Z,15.23
2022-12-09T09:47:47.266Z,16.55
2022-12-09T09:50:23.061Z,17.60
2022-12-09T09:52:51.886Z,16.45
2022-12-09T09:55:25.156Z,17.15
2022-12-09T09:57:58.213Z,17.50
2022-12-09T10:00:28.723Z,17.88
2022-12-09T10:03:01.152Z,17.63
2022-12-09T10:05:31.702Z,19.42
2022-12-09T10:08:05.184Z,21.08
2022-12-09T10:10:40.305Z,20.02
2022-12-09T10:13:25.330Z,20.55
2022-12-09T10:16:03.793Z,19.55
2022-12-09T10:18:38.820Z,20.92
2022-12-09T10:21:40.932Z,23.67
2022-12-09T10:24:18.427Z,24.23
2022-12-09T10:26:52.043Z,28.98
2022-12-09T10:29:23.312Z,24.63
2022-12-09T10:31:52.440Z,24.40
2022-12-09T10:34:20.330Z,25.77
2022-12-09T10:36:48.833Z,23.15
2022-12-09T10:39:19.044Z,24.65
2022-12-09T10:42:06.387Z,24.58
2022-12-09T10:44:34.117Z,26.20
2022-12-09T10:47:03.183Z,25.40
2022-12-09T10:49:31.613Z,26.08
2022-12-09T10:52:00.096Z,27.17
2022-12-09T10:54:33.154Z,25.95
2022-12-09T10:57:03.641Z,28.50
2022-12-09T10:59:32.094Z,32.08
2022-12-09T11:02:02.283Z,26.70
2022-12-09T11:04:33.278Z,25.98
2022-12-09T11:07:05.210Z,25.15
2022-12-09T11:09:34.479Z,26.15
2022-12-09T11:12:05.999Z,27.15
2022-12-09T11:14:35.850Z,25.67
2022-12-09T11:17:12.953Z,24.20
2022-12-09T11:19:40.849Z,24.52
2022-12-09T11:22:16.105Z,21.92
2022-12-09T11:24:45.018Z,20.48
2022-12-09T11:27:30.297Z,19.60
2022-12-09T11:30:13.119Z,21.55
2022-12-09T11:32:53.782Z,23.27
2022-12-09T11:35:24.080Z,21.80
2022-12-09T11:37:53.150Z,22.45
2022-12-09T11:40:23.035Z,23.15
2022-12-09T11:42:52.889Z,25.25
2022-12-09T11:45:24.446Z,22.38
2022-12-09T11:48:24.464Z,21.70
2022-12-09T11:50:49.370Z,20.45
2022-12-09T11:53:24.666Z,22.80
2022-12-09T11:55:54.245Z,23.13
2022-12-09T11:58:25.604Z,24.88
2022-12-09T12:00:56.663Z,26.25
2022-12-09T12:03:26.699Z,26.27
2022-12-09T12:05:55.405Z,25.40
2022-12-09T12:08:26.785Z,25.83
2022-12-09T12:10:57.597Z,24.10
2022-12-09T12:13:29.135Z,23.65
2022-12-09T12:15:59.731Z,23.73
2022-12-09T12:18:28.504Z,21.35
2022-12-09T12:21:14.067Z,20.67
2022-12-09T12:23:49.274Z,19.73
2022-12-09T12:26:19.897Z,18.08
2022-12-09T12:29:01.268Z,17.27
2022-12-09T12:31:37.674Z,16.27
2022-12-09T12:34:24.572Z,17.70
2022-12-09T12:37:03.338Z,17.58
2022-12-09T12:39:35.723Z,16.13
2022-12-09T12:42:09.886Z,16.38
2022-12-09T12:47:26.458Z,13.73
2022-12-09T12:50:05.678Z,16.65
2022-12-09T12:53:01.056Z,14.43
2022-12-09T12:55:41.594Z,16.33
2022-12-09T12:58:14.467Z,14.55
2022-12-09T13:00:45.834Z,16.33
2022-12-09T13:03:21.303Z,16.58
2022-12-09T13:05:51.139Z,16.30
2022-12-09T13:08:23.893Z,15.65
2022-12-09T13:10:53.727Z,17.67
2022-12-09T13:13:23.392Z,16.77
2022-12-09T13:15:53.054Z,16.92
2022-12-09T13:18:23.889Z,17.25
2022-12-09T13:20:53.052Z,16.48
2022-12-09T13:23:25.951Z,16.90
2022-12-09T13:25:57.551Z,17.63
2022-12-09T13:28:30.852Z,17.67
2022-12-09T13:30:59.843Z,16.63
2022-12-09T13:33:38.251Z,17.02
2022-12-09T13:36:07.839Z,16.80
2022-12-09T13:38:36.879Z,19.88
2022-12-09T13:41:19.309Z,20.15
2022-12-09T13:43:46.869Z,17.80
2022-12-09T13:46:25.456Z,18.55
2022-12-09T13:48:55.250Z,16.77
2022-12-09T13:51:27.609Z,19.08
2022-12-09T13:54:02.248Z,18.45
2022-12-09T13:56:31.123Z,16.88
2022-12-09T13:59:14.864Z,17.88
2022-12-09T14:01:45.114Z,18.65
2022-12-09T14:04:16.005Z,19.23
2022-12-09T14:06:51.310Z,17.25
2022-12-09T14:09:25.556Z,18.15
2022-12-09T14:11:53.244Z,15.65
2022-12-09T14:14:39.562Z,14.57
2022-12-09T14:17:18.535Z,16.65
2022-12-09T14:19:52.490Z,14.52
2022-12-09T14:22:37.819Z,15.38
2022-12-09T14:25:33.710Z,14.15
2022-12-09T14:28:16.612Z,15.80
2022-12-09T14:30:48.635Z,15.88
2022-12-09T14:33:26.055Z,15.88
2022-12-09T14:35:57.180Z,15.50
2022-12-09T14:38:28.365Z,16.02
2022-12-09T14:41:03.573Z,15.20
2022-12-09T14:43:43.537Z,22.25
2022-12-09T14:46:23.358Z,19.52
2022-12-09T14:48:54.032Z,20.60
2022-12-09T14:51:24.058Z,19.08
2022-12-09T14:53:54.772Z,20.77
2022-12-09T14:56:23.557Z,16.55
2022-12-09T14:58:52.967Z,17.23
2022-12-09T15:01:20.506Z,18.02
2022-12-09T15:03:55.172Z,17.35
2022-12-09T15:06:26.702Z,16.90
2022-12-09T15:08:58.392Z,16.88
2022-12-09T15:11:28.358Z,16.60
2022-12-09T15:13:56.962Z,18.20
2022-12-09T15:16:25.982Z,22.67
2022-12-09T15:18:54.674Z,17.65
2022-12-09T15:21:31.950Z,18.83
2022-12-09T15:24:00.354Z,18.23
2022-12-09T15:26:28.645Z,20.13
2022-12-09T15:28:57.284Z,26.50
2022-12-09T15:31:27.089Z,24.00
2022-12-09T15:33:55.522Z,18.77
2022-12-09T15:36:24.621Z,26.08
2022-12-09T15:39:02.101Z,22.13
2022-12-09T15:42:10.379Z,22.42
2022-12-09T15:44:52.735Z,24.15
2022-12-09T15:47:23.764Z,19.48
2022-12-09T15:49:53.621Z,22.23
2022-12-09T15:52:24.046Z,19.70
2022-12-09T15:54:54.782Z,19.58
2022-12-09T15:57:23.203Z,19.50
2022-12-09T15:59:55.813Z,19.80
2022-12-09T16:02:26.737Z,20.83
2022-12-09T16:04:55.425Z,19.10
2022-12-09T16:07:25.167Z,19.25
2022-12-09T16:10:05.898Z,20.67
2022-12-09T16:12:35.200Z,22.40
2022-12-09T16:15:04.107Z,20.02
2022-12-09T16:17:32.623Z,23.13
2022-12-09T16:20:00.359Z,27.08
2022-12-09T16:22:29.071Z,22.92
2022-12-09T16:25:17.361Z,22.27
2022-12-09T16:27:48.856Z,22.85
2022-12-09T16:30:17.440Z,24.70
2022-12-09T16:32:45.675Z,20.75
2022-12-09T16:35:17.055Z,19.73
2022-12-09T16:41:06.156Z,17.15
2022-12-09T16:43:52.504Z,18.35
2022-12-09T16:46:43.306Z,17.30
2022-12-09T16:49:31.128Z,18.77
2022-12-09T16:52:14.915Z,25.52
2022-12-09T16:54:46.295Z,31.70
2022-12-09T16:57:15.287Z,28.40
2022-12-09T16:59:46.389Z,38.20
2022-12-09T17:02:18.185Z,35.35
2022-12-09T17:04:45.768Z,30.10
2022-12-09T17:07:14.603Z,31.10
2022-12-09T17:09:42.155Z,19.73
2022-12-09T17:12:10.152Z,22.85
2022-12-09T17:14:38.027Z,20.58
2022-12-09T17:17:05.725Z,19.38
2022-12-09T17:19:34.689Z,19.00
2022-12-09T17:22:05.247Z,21.88
2022-12-09T17:24:32.759Z,19.42
2022-12-09T17:27:00.303Z,20.52
2022-12-09T17:29:27.938Z,21.52
2022-12-09T17:31:55.630Z,22.92
2022-12-09T17:34:23.407Z,24.02
2022-12-09T17:36:56.207Z,22.27
2022-12-09T17:39:26.808Z,33.45
2022-12-09T17:41:55.602Z,61.33
2022-12-09T17:44:25.540Z,27.60
2022-12-09T17:46:56.910Z,25.02
2022-12-09T17:49:24.585Z,29.17
2022-12-09T17:51:52.444Z,23.88
2022-12-09T17:54:21.369Z,21.45
2022-12-09T17:56:49.133Z,21.35
2022-12-09T17:59:17.684Z,20.92
2022-12-09T18:01:47.192Z,19.60
2022-12-09T18:04:16.493Z,19.15
2022-12-09T18:06:46.201Z,19.10
2022-12-09T18:09:15.227Z,20.58
2022-12-09T18:11:44.549Z,20.45
2022-12-09T18:14:12.304Z,22.23
2022-12-09T18:16:39.940Z,22.08
2022-12-09T18:19:13.202Z,24.80
2022-12-09T18:21:40.779Z,28.50
2022-12-09T18:24:08.898Z,39.95
2022-12-09T18:26:41.659Z,24.08
2022-12-09T18:29:11.501Z,29.10
2022-12-09T18:31:39.710Z,27.58
2022-12-09T18:34:07.522Z,23.92
2022-12-09T18:36:36.281Z,26.65
2022-12-09T18:39:03.974Z,25.67
2022-12-09T18:41:32.052Z,22.83
2022-12-09T18:44:01.913Z,26.27
2022-12-09T18:46:32.178Z,25.60
2022-12-09T18:49:01.227Z,25.65
2022-12-09T18:51:29.639Z,26.35
2022-12-09T18:53:57.806Z,29.80
2022-12-09T18:56:25.659Z,25.98
2022-12-09T18:59:09.467Z,27.88
2022-12-09T19:01:43.876Z,32.03
2022-12-09T19:06:40.850Z,28.27
2022-12-09T19:09:09.369Z,41.85
2022-12-09T19:11:38.040Z,32.17
2022-12-09T19:14:06.068Z,28.95
2022-12-09T19:16:33.846Z,28.40
2022-12-09T19:19:09.438Z,45.08
2022-12-09T19:21:38.466Z,37.42
2022-12-09T19:24:06.412Z,30.42
2022-12-09T19:26:37.781Z,30.38
2022-12-09T19:29:06.690Z,30.67
2022-12-09T19:31:36.019Z,30.50
2022-12-09T19:34:08.504Z,29.58
2022-12-09T19:36:39.178Z,30.33
2022-12-09T19:39:10.870Z,28.15
2022-12-09T19:41:39.619Z,28.50
2022-12-09T19:44:07.823Z,26.67
2022-12-09T19:46:35.551Z,28.52
2022-12-09T19:49:03.280Z,28.80
2022-12-09T19:51:32.374Z,28.95
2022-12-09T19:54:00.856Z,29.85
2022-12-09T19:56:28.391Z,31.10
2022-12-09T19:58:56.399Z,30.52
2022-12-09T20:01:25.468Z,29.30
2022-12-09T20:03:56.043Z,31.83
2022-12-09T20:06:24.300Z,30.45
2022-12-09T20:08:53.396Z,28.60
2022-12-09T20:11:22.347Z,29.95
2022-12-09T20:13:50.364Z,32.13
2022-12-09T20:16:19.121Z,30.23
2022-12-09T20:18:48.465Z,33.35
2022-12-09T20:21:17.341Z,31.08
2022-12-09T20:23:45.297Z,31.50
2022-12-09T20:26:15.072Z,31.90
2022-12-09T20:28:44.491Z,30.67
2022-12-09T20:31:13.439Z,32.92
2022-12-09T20:33:42.181Z,31.40
2022-12-09T20:36:13.163Z,29.40
2022-12-09T20:38:40.922Z,30.48
2022-12-09T20:41:10.041Z,30.60
2022-12-09T20:43:40.269Z,31.85
2022-12-09T20:46:08.911Z,30.35
2022-12-09T20:48:37.084Z,33.83
2022-12-09T20:51:05.291Z,37.70
2022-12-09T20:53:32.808Z,32.00
2022-12-09T20:56:00.898Z,30.25
2022-12-09T20:58:28.776Z,29.13
2022-12-09T21:01:04.823Z,28.98
2022-12-09T21:03:32.579Z,29.42
2022-12-09T21:06:00.829Z,28.42
2022-12-09T21:08:31.512Z,29.52
2022-12-09T21:11:03.384Z,31.15
2022-12-09T21:13:30.956Z,29.75
2022-12-09T21:16:05.107Z,30.95
2022-12-09T21:21:00.749Z,29.05
2022-12-09T21:23:35.810Z,29.55
2022-12-09T21:26:04.484Z,30.98
2022-12-09T21:28:32.010Z,28.75
2022-12-09T21:31:03.582Z,29.50
2022-12-09T21:33:32.478Z,28.85
2022-12-09T21:35:59.974Z,28.20
2022-12-09T21:38:27.548Z,28.95
2022-12-09T21:40:55.048Z,28.70
2022-12-09T21:43:22.564Z,27.02
2022-12-09T21:45:50.104Z,28.10
2022-12-09T21:48:18.499Z,28.45
2022-12-09T21:50:54.044Z,28.58
2022-12-09T21:53:21.563Z,27.20
2022-12-09T21:55:49.057Z,29.23
2022-12-09T21:58:16.558Z,26.45
2022-12-09T22:00:44.445Z,26.45
2022-12-09T22:03:12.052Z,23.80
2022-12-09T22:05:40.518Z,23.98
2022-12-09T22:08:09.444Z,23.15
2022-12-09T22:10:38.296Z,23.52
2022-12-09T22:13:06.079Z,22.75
2022-12-09T22:15:33.628Z,23.67
2022-12-09T22:18:01.132Z,24.30
2022-12-09T22:23:17.644Z,24.67
2022-12-09T22:25:45.672Z,28.17
2022-12-09T22:28:13.147Z,25.23
2022-12-09T22:30:40.695Z,26.73
2022-12-09T22:33:08.898Z,26.98
2022-12-09T22:35:36.410Z,24.92
2022-12-09T22:38:10.190Z,26.80
2022-12-09T22:40:41.813Z,28.25
2022-12-09T22:43:09.370Z,27.05
2022-12-09T22:45:37.147Z,27.33
2022-12-09T22:48:04.885Z,27.10
2022-12-09T22:50:32.357Z,27.15
2022-12-09T22:53:00.272Z,25.50
2022-12-09T22:55:27.752Z,26.67
2022-12-09T22:57:56.673Z,26.10
2022-12-09T23:00:24.172Z,27.17
2022-12-09T23:02:51.894Z,25.63
2022-12-09T23:05:19.704Z,28.55
2022-12-09T23:07:47.384Z,25.88
2022-12-09T23:10:15.151Z,24.83
2022-12-09T23:12:42.670Z,28.35
2022-12-09T23:15:12.442Z,24.08
2022-12-09T23:17:39.944Z,24.85
2022-12-09T23:20:08.365Z,26.17
2022-12-09T23:22:36.164Z,24.98
2022-12-09T23:25:03.786Z,24.30
2022-12-09T23:27:31.655Z,22.95
2022-12-09T23:29:59.361Z,23.98
2022-12-09T23:32:28.420Z,23.40
2022-12-09T23:34:56.111Z,24.70
2022-12-09T23:37:23.746Z,22.20
2022-12-09T23:39:51.440Z,24.35
2022-12-09T23:42:20.849Z,21.98
2022-12-09T23:44:48.532Z,22.65
2022-12-09T23:47:16.471Z,22.40
2022-12-09T23:49:45.457Z,22.75
2022-12-09T23:52:12.965Z,24.48
2022-12-09T23:54:40.598Z,23.52
2022-12-09T23:57:08.179Z,23.33
2022-12-09T23:59:35.983Z,23.30
